Forside
METAR-TAF:

METAR-TAF

Lufthavne :

Khartoum, Sudan

Breddekreds: 15-36N, længdekreds: 032-33E, højde: 382 m

Aktuelle vejr

Denne rapport blev lavet for 6 minutter siden, kl. 13:00 UTC
Vind 7 kt fra vest
Temperatur 39°C
Fugtighed 19%
Tryk 1010 hPa
Sigt: 8000 m

METAR: HSSS 221300Z 26007KT 8000 39/11 Q1010 NOSIG

Tid: 16:06 (13:06 UTC)

Vejrudsigter

Denne rapport blev lavet for 2 timer og 6 minutter siden, kl. 11:00 UTC
Foreløbig gælder fra 22 på 12 UTC til 23 på 18 UTC
Vind 12 kt fra sydvest med vindstød på up til 22 kt
Sigt: 6000 m
Nogle få skyer i en højde af 4000 ft
Spredte skyer i en højde af 14000 ft
Midlertidig
fra 22 på 15 UTC til 22 på 18 UTC
Sigt: 4000 m
Nogle få skyer i en højde af 4500 ft, Cumulonimbus.
tordenbyger, regn

TAF: HSSS 221100Z 2212/2318 22012G22KT 6000 FEW040 SCT140 TEMPO 2215/2218 4000 TSRA FEW045CB

Vejrobservationer og prognoser fra mere end 4000 lufthavne (METAR og TAF).

De gule og røde prikker repræsenterer de meteorologiske stationer.

Flyt musen over at se navnet på stationen.

Så klik over at se vejr observationer og prognoser.

At skifte det kort: Klik på de grønne knapper med et sort kors for at zoome ind; på den grønne knap med en bindestreg for at zoome ud; eller på de grønne pile for tilstødende kort.


METAR-TAF: